sensor_id;sensor_type;location;lat;lon;timestamp;pressure;altitude;pressure_sealevel;temperature;humidity
9229;BME280;4649;42.644;23.284;2022-07-18T00:02:11;93813.53;;;19.67;46.01
9229;BME280;4649;42.644;23.284;2022-07-18T00:04:38;93813.50;;;19.80;45.54
9229;BME280;4649;42.644;23.284;2022-07-18T00:07:05;93814.81;;;19.79;44.33
9229;BME280;4649;42.644;23.284;2022-07-18T00:09:32;93771.47;;;19.39;43.67
9229;BME280;4649;42.644;23.284;2022-07-18T00:11:58;93823.03;;;19.79;44.54
9229;BME280;4649;42.644;23.284;2022-07-18T00:14:26;93820.28;;;19.79;44.09
9229;BME280;4649;42.644;23.284;2022-07-18T00:16:53;93798.91;;;19.52;45.94
9229;BME280;4649;42.644;23.284;2022-07-18T00:19:20;93809.94;;;19.72;44.78
9229;BME280;4649;42.644;23.284;2022-07-18T00:21:47;93815.00;;;19.81;45.27
9229;BME280;4649;42.644;23.284;2022-07-18T00:24:14;93764.13;;;19.55;45.75
9229;BME280;4649;42.644;23.284;2022-07-18T00:26:41;93811.25;;;19.58;44.47
9229;BME280;4649;42.644;23.284;2022-07-18T00:29:07;93811.47;;;19.60;46.30
9229;BME280;4649;42.644;23.284;2022-07-18T00:31:36;93811.47;;;19.60;45.03
9229;BME280;4649;42.644;23.284;2022-07-18T00:34:03;93797.75;;;19.48;46.04
9229;BME280;4649;42.644;23.284;2022-07-18T00:36:30;93813.25;;;19.58;45.12
9229;BME280;4649;42.644;23.284;2022-07-18T00:39:03;93807.31;;;19.67;44.18
9229;BME280;4649;42.644;23.284;2022-07-18T00:41:29;93807.88;;;19.53;42.09
9229;BME280;4649;42.644;23.284;2022-07-18T00:43:56;93758.50;;;19.14;43.75
9229;BME280;4649;42.644;23.284;2022-07-18T00:46:24;93720.41;;;18.85;44.18
9229;BME280;4649;42.644;23.284;2022-07-18T00:48:52;93792.06;;;19.33;42.16
9229;BME280;4649;42.644;23.284;2022-07-18T00:51:20;93797.25;;;19.23;42.36
9229;BME280;4649;42.644;23.284;2022-07-18T00:53:48;93806.84;;;19.30;41.28
9229;BME280;4649;42.644;23.284;2022-07-18T00:56:17;93804.97;;;19.12;40.83
9229;BME280;4649;42.644;23.284;2022-07-18T00:58:45;93786.16;;;19.03;40.53
9229;BME280;4649;42.644;23.284;2022-07-18T01:01:11;93786.34;;;18.92;41.31
9229;BME280;4649;42.644;23.284;2022-07-18T01:03:57;93781.50;;;18.85;41.90
9229;BME280;4649;42.644;23.284;2022-07-18T01:06:24;93816.84;;;19.01;39.47
9229;BME280;4649;42.644;23.284;2022-07-18T01:08:51;93719.75;;;18.40;38.47
9229;BME280;4649;42.644;23.284;2022-07-18T01:11:18;93813.13;;;18.99;38.20
9229;BME280;4649;42.644;23.284;2022-07-18T01:13:47;93815.56;;;18.90;38.86
9229;BME280;4649;42.644;23.284;2022-07-18T01:16:14;93795.94;;;18.73;38.48
9229;BME280;4649;42.644;23.284;2022-07-18T01:18:44;93812.63;;;18.88;37.18
9229;BME280;4649;42.644;23.284;2022-07-18T01:21:13;93810.06;;;18.77;37.69
9229;BME280;4649;42.644;23.284;2022-07-18T01:23:40;93809.28;;;18.63;38.04
9229;BME280;4649;42.644;23.284;2022-07-18T01:26:07;93811.63;;;18.59;37.55
9229;BME280;4649;42.644;23.284;2022-07-18T01:28:34;93796.00;;;18.54;38.57
9229;BME280;4649;42.644;23.284;2022-07-18T01:31:01;93811.00;;;18.66;38.52
9229;BME280;4649;42.644;23.284;2022-07-18T01:33:30;93785.03;;;18.54;38.22
9229;BME280;4649;42.644;23.284;2022-07-18T01:35:58;93806.75;;;18.52;38.20
9229;BME280;4649;42.644;23.284;2022-07-18T01:38:26;93809.19;;;18.56;38.54
9229;BME280;4649;42.644;23.284;2022-07-18T01:40:52;93799.53;;;18.36;36.39
9229;BME280;4649;42.644;23.284;2022-07-18T01:43:20;93810.72;;;18.38;37.45
9229;BME280;4649;42.644;23.284;2022-07-18T01:45:47;93805.38;;;18.46;37.24
9229;BME280;4649;42.644;23.284;2022-07-18T01:48:14;93803.75;;;18.37;37.58
9229;BME280;4649;42.644;23.284;2022-07-18T01:50:41;93797.69;;;18.44;36.63
9229;BME280;4649;42.644;23.284;2022-07-18T01:53:08;93774.03;;;18.10;37.08
9229;BME280;4649;42.644;23.284;2022-07-18T01:55:36;93790.25;;;18.08;38.37
9229;BME280;4649;42.644;23.284;2022-07-18T01:58:04;93789.16;;;17.98;37.00
9229;BME280;4649;42.644;23.284;2022-07-18T02:00:31;93765.38;;;17.75;37.09
9229;BME280;4649;42.644;23.284;2022-07-18T02:02:57;93745.47;;;17.56;36.69
9229;BME280;4649;42.644;23.284;2022-07-18T02:05:25;93765.50;;;17.64;36.92
9229;BME280;4649;42.644;23.284;2022-07-18T02:07:51;93778.97;;;17.80;36.20
9229;BME280;4649;42.644;23.284;2022-07-18T02:10:21;93781.41;;;17.84;35.72
9229;BME280;4649;42.644;23.284;2022-07-18T02:12:51;93740.66;;;17.62;38.52
9229;BME280;4649;42.644;23.284;2022-07-18T02:15:18;93779.53;;;17.92;37.16
9229;BME280;4649;42.644;23.284;2022-07-18T02:17:45;93751.28;;;17.53;35.64
9229;BME280;4649;42.644;23.284;2022-07-18T02:20:14;93794.22;;;17.76;35.92
9229;BME280;4649;42.644;23.284;2022-07-18T02:22:42;93790.06;;;17.88;37.24
9229;BME280;4649;42.644;23.284;2022-07-18T02:25:09;93627.97;;;16.90;35.69
9229;BME280;4649;42.644;23.284;2022-07-18T02:27:36;93795.38;;;18.17;35.96
9229;BME280;4649;42.644;23.284;2022-07-18T02:30:07;93792.13;;;18.00;36.64
9229;BME280;4649;42.644;23.284;2022-07-18T02:32:34;93804.34;;;18.18;36.09
9229;BME280;4649;42.644;23.284;2022-07-18T02:35:03;93762.28;;;17.97;36.96
9229;BME280;4649;42.644;23.284;2022-07-18T02:37:31;93774.97;;;18.00;36.08
9229;BME280;4649;42.644;23.284;2022-07-18T02:39:58;93811.28;;;18.19;35.72
9229;BME280;4649;42.644;23.284;2022-07-18T02:42:25;93816.09;;;18.13;37.01
9229;BME280;4649;42.644;23.284;2022-07-18T02:44:52;93792.28;;;17.89;36.32
9229;BME280;4649;42.644;23.284;2022-07-18T02:47:21;93820.91;;;18.07;36.17
9229;BME280;4649;42.644;23.284;2022-07-18T02:49:48;93812.94;;;17.90;36.91
9229;BME280;4649;42.644;23.284;2022-07-18T02:52:14;93798.44;;;17.59;36.63
9229;BME280;4649;42.644;23.284;2022-07-18T02:54:41;93830.03;;;17.78;37.15
9229;BME280;4649;42.644;23.284;2022-07-18T02:57:08;93833.34;;;17.89;37.18
9229;BME280;4649;42.644;23.284;2022-07-18T02:59:35;93821.63;;;17.76;36.82
9229;BME280;4649;42.644;23.284;2022-07-18T03:02:02;93833.22;;;17.64;37.71
9229;BME280;4649;42.644;23.284;2022-07-18T03:04:30;93814.06;;;17.45;37.89
9229;BME280;4649;42.644;23.284;2022-07-18T03:06:57;93808.50;;;17.32;37.33
9229;BME280;4649;42.644;23.284;2022-07-18T03:09:24;93828.41;;;17.33;37.88
9229;BME280;4649;42.644;23.284;2022-07-18T03:11:53;93828.56;;;17.40;38.20
9229;BME280;4649;42.644;23.284;2022-07-18T03:14:21;93797.41;;;17.19;38.75
9229;BME280;4649;42.644;23.284;2022-07-18T03:16:48;93764.25;;;16.86;38.57
9229;BME280;4649;42.644;23.284;2022-07-18T03:19:15;93833.59;;;17.36;38.48
9229;BME280;4649;42.644;23.284;2022-07-18T03:21:45;93835.50;;;17.17;39.91
9229;BME280;4649;42.644;23.284;2022-07-18T03:24:12;93837.47;;;16.99;39.03
9229;BME280;4649;42.644;23.284;2022-07-18T03:26:40;93842.09;;;16.85;39.71
9229;BME280;4649;42.644;23.284;2022-07-18T03:29:08;93785.47;;;16.56;39.84
9229;BME280;4649;42.644;23.284;2022-07-18T03:31:35;93846.59;;;16.83;39.96
9229;BME280;4649;42.644;23.284;2022-07-18T03:34:02;93749.34;;;16.10;39.85
9229;BME280;4649;42.644;23.284;2022-07-18T03:36:29;93831.16;;;16.85;39.67
9229;BME280;4649;42.644;23.284;2022-07-18T03:38:57;93831.88;;;17.09;38.68
9229;BME280;4649;42.644;23.284;2022-07-18T03:41:24;93827.44;;;17.30;39.54
9229;BME280;4649;42.644;23.284;2022-07-18T03:43:51;93827.50;;;17.43;39.08
9229;BME280;4649;42.644;23.284;2022-07-18T03:46:18;93834.47;;;17.63;40.04
9229;BME280;4649;42.644;23.284;2022-07-18T03:48:45;93781.66;;;17.49;40.19
9229;BME280;4649;42.644;23.284;2022-07-18T03:51:12;93822.94;;;17.88;40.52
9229;BME280;4649;42.644;23.284;2022-07-18T03:53:40;93830.28;;;18.11;38.82
9229;BME280;4649;42.644;23.284;2022-07-18T03:56:09;93825.22;;;18.21;38.45
9229;BME280;4649;42.644;23.284;2022-07-18T03:58:36;93836.78;;;18.45;38.44
9229;BME280;4649;42.644;23.284;2022-07-18T04:01:03;93838.84;;;18.57;40.65
9229;BME280;4649;42.644;23.284;2022-07-18T04:03:30;93838.19;;;18.64;40.39
9229;BME280;4649;42.644;23.284;2022-07-18T04:05:57;93763.31;;;18.43;38.91
9229;BME280;4649;42.644;23.284;2022-07-18T04:08:24;93844.75;;;19.18;38.96
9229;BME280;4649;42.644;23.284;2022-07-18T04:10:51;93838.78;;;19.79;37.56
9229;BME280;4649;42.644;23.284;2022-07-18T04:13:19;93829.88;;;20.52;35.46
9229;BME280;4649;42.644;23.284;2022-07-18T04:15:46;93828.81;;;21.24;34.40
9229;BME280;4649;42.644;23.284;2022-07-18T04:18:13;93832.91;;;22.01;34.44
9229;BME280;4649;42.644;23.284;2022-07-18T04:20:39;93832.34;;;22.52;34.86
9229;BME280;4649;42.644;23.284;2022-07-18T04:23:08;93839.91;;;22.89;32.94
9229;BME280;4649;42.644;23.284;2022-07-18T04:25:37;93810.66;;;22.71;31.25
9229;BME280;4649;42.644;23.284;2022-07-18T04:28:04;93755.19;;;22.17;31.55
9229;BME280;4649;42.644;23.284;2022-07-18T04:30:33;93802.72;;;22.60;33.09
9229;BME280;4649;42.644;23.284;2022-07-18T04:33:01;93838.63;;;22.75;32.21
9229;BME280;4649;42.644;23.284;2022-07-18T04:35:28;93782.66;;;22.52;32.59
9229;BME280;4649;42.644;23.284;2022-07-18T04:37:55;93825.19;;;23.01;32.80
9229;BME280;4649;42.644;23.284;2022-07-18T04:40:22;93827.56;;;22.97;32.19
9229;BME280;4649;42.644;23.284;2022-07-18T04:42:49;93834.78;;;23.08;32.53
9229;BME280;4649;42.644;23.284;2022-07-18T04:45:16;93828.31;;;23.20;32.61
9229;BME280;4649;42.644;23.284;2022-07-18T04:47:48;93826.47;;;23.23;31.14
9229;BME280;4649;42.644;23.284;2022-07-18T04:50:15;93776.03;;;22.92;30.37
9229;BME280;4649;42.644;23.284;2022-07-18T04:52:44;93789.09;;;22.92;32.83
9229;BME280;4649;42.644;23.284;2022-07-18T04:55:12;93768.31;;;22.76;32.21
9229;BME280;4649;42.644;23.284;2022-07-18T04:57:39;93805.88;;;23.09;30.54
9229;BME280;4649;42.644;23.284;2022-07-18T05:00:07;93798.50;;;22.96;31.42
9229;BME280;4649;42.644;23.284;2022-07-18T05:02:35;93816.91;;;23.09;31.06
9229;BME280;4649;42.644;23.284;2022-07-18T05:05:07;93805.88;;;22.94;31.05
9229;BME280;4649;42.644;23.284;2022-07-18T05:07:37;93823.75;;;23.08;31.59
9229;BME280;4649;42.644;23.284;2022-07-18T05:10:06;93812.47;;;22.98;31.66
9229;BME280;4649;42.644;23.284;2022-07-18T05:12:34;93824.28;;;23.21;32.68
9229;BME280;4649;42.644;23.284;2022-07-18T05:15:04;93664.75;;;22.23;30.90
9229;BME280;4649;42.644;23.284;2022-07-18T05:17:31;93823.91;;;23.17;30.53
9229;BME280;4649;42.644;23.284;2022-07-18T05:19:58;93820.22;;;23.15;31.10
9229;BME280;4649;42.644;23.284;2022-07-18T05:22:26;93793.94;;;22.99;31.17
9229;BME280;4649;42.644;23.284;2022-07-18T05:24:53;93795.75;;;23.04;30.49
9229;BME280;4649;42.644;23.284;2022-07-18T05:27:20;93814.72;;;23.15;29.59
9229;BME280;4649;42.644;23.284;2022-07-18T05:29:47;93824.47;;;23.16;33.29
9229;BME280;4649;42.644;23.284;2022-07-18T05:32:14;93821.31;;;23.34;30.75
9229;BME280;4649;42.644;23.284;2022-07-18T05:34:40;93829.38;;;23.39;29.34
9229;BME280;4649;42.644;23.284;2022-07-18T05:37:07;93828.66;;;23.39;29.28
9229;BME280;4649;42.644;23.284;2022-07-18T05:39:36;93787.28;;;23.17;29.67
9229;BME280;4649;42.644;23.284;2022-07-18T05:42:03;93837.03;;;23.93;30.07
9229;BME280;4649;42.644;23.284;2022-07-18T05:44:30;93832.97;;;23.87;27.86
9229;BME280;4649;42.644;23.284;2022-07-18T05:46:57;93833.22;;;24.20;30.89
9229;BME280;4649;42.644;23.284;2022-07-18T05:49:23;93833.38;;;24.61;30.61
9229;BME280;4649;42.644;23.284;2022-07-18T05:51:50;93815.22;;;24.44;28.85
9229;BME280;4649;42.644;23.284;2022-07-18T05:54:17;93821.63;;;24.54;27.49
9229;BME280;4649;42.644;23.284;2022-07-18T05:56:48;93809.81;;;24.53;27.24
9229;BME280;4649;42.644;23.284;2022-07-18T05:59:15;93834.00;;;24.77;26.78
9229;BME280;4649;42.644;23.284;2022-07-18T06:01:42;93819.53;;;24.61;26.99
9229;BME280;4649;42.644;23.284;2022-07-18T06:04:09;93824.34;;;25.34;29.95
9229;BME280;4649;42.644;23.284;2022-07-18T06:06:36;93839.44;;;25.40;27.86
9229;BME280;4649;42.644;23.284;2022-07-18T06:09:04;93815.94;;;25.41;28.44
9229;BME280;4649;42.644;23.284;2022-07-18T06:11:31;93807.06;;;25.43;26.48
9229;BME280;4649;42.644;23.284;2022-07-18T06:13:59;93820.84;;;25.67;25.39
9229;BME280;4649;42.644;23.284;2022-07-18T06:16:28;93840.63;;;25.71;25.11
9229;BME280;4649;42.644;23.284;2022-07-18T06:18:54;93833.63;;;25.70;25.27
9229;BME280;4649;42.644;23.284;2022-07-18T06:21:21;93751.13;;;25.20;25.17
9229;BME280;4649;42.644;23.284;2022-07-18T06:23:48;93818.59;;;25.73;25.92
9229;BME280;4649;42.644;23.284;2022-07-18T06:26:15;93830.13;;;25.86;25.88
9229;BME280;4649;42.644;23.284;2022-07-18T06:28:42;93839.34;;;26.32;26.72
9229;BME280;4649;42.644;23.284;2022-07-18T06:31:10;93830.44;;;26.77;24.81
9229;BME280;4649;42.644;23.284;2022-07-18T06:33:40;93832.00;;;26.27;25.85
9229;BME280;4649;42.644;23.284;2022-07-18T06:36:07;93750.97;;;26.29;25.96
9229;BME280;4649;42.644;23.284;2022-07-18T06:38:37;93812.06;;;26.91;24.42
9229;BME280;4649;42.644;23.284;2022-07-18T06:41:07;93815.03;;;26.66;24.91
9229;BME280;4649;42.644;23.284;2022-07-18T06:43:36;93779.13;;;26.25;25.09
9229;BME280;4649;42.644;23.284;2022-07-18T06:46:03;93794.09;;;26.13;25.07
9229;BME280;4649;42.644;23.284;2022-07-18T06:48:31;93826.78;;;26.48;26.67
9229;BME280;4649;42.644;23.284;2022-07-18T06:51:00;93799.41;;;26.44;25.48
9229;BME280;4649;42.644;23.284;2022-07-18T06:53:27;93789.88;;;26.64;24.16
9229;BME280;4649;42.644;23.284;2022-07-18T06:55:54;93768.75;;;26.78;24.78
9229;BME280;4649;42.644;23.284;2022-07-18T06:58:23;93823.47;;;26.95;24.02
9229;BME280;4649;42.644;23.284;2022-07-18T07:00:51;93806.31;;;26.79;25.96
9229;BME280;4649;42.644;23.284;2022-07-18T07:03:18;93781.28;;;26.96;28.08
9229;BME280;4649;42.644;23.284;2022-07-18T07:05:46;93801.41;;;27.42;25.42
9229;BME280;4649;42.644;23.284;2022-07-18T07:08:13;93798.09;;;27.62;23.04
9229;BME280;4649;42.644;23.284;2022-07-18T07:10:39;93787.72;;;28.00;24.83
9229;BME280;4649;42.644;23.284;2022-07-18T07:13:06;93804.56;;;27.74;23.11
9229;BME280;4649;42.644;23.284;2022-07-18T07:15:33;93807.84;;;27.35;25.18
9229;BME280;4649;42.644;23.284;2022-07-18T07:18:01;93806.81;;;27.30;23.91
9229;BME280;4649;42.644;23.284;2022-07-18T07:20:28;93807.84;;;27.44;24.55
9229;BME280;4649;42.644;23.284;2022-07-18T07:22:57;93742.88;;;27.40;25.73
9229;BME280;4649;42.644;23.284;2022-07-18T07:25:25;93775.41;;;27.94;22.95
9229;BME280;4649;42.644;23.284;2022-07-18T07:27:53;93792.41;;;28.07;23.05
9229;BME280;4649;42.644;23.284;2022-07-18T07:30:20;93807.06;;;28.36;22.45
9229;BME280;4649;42.644;23.284;2022-07-18T07:32:47;93797.97;;;28.35;21.67
9229;BME280;4649;42.644;23.284;2022-07-18T07:35:17;93814.69;;;28.26;21.26
9229;BME280;4649;42.644;23.284;2022-07-18T07:37:46;93799.28;;;28.06;19.97
9229;BME280;4649;42.644;23.284;2022-07-18T07:40:15;93802.38;;;28.29;19.49
9229;BME280;4649;42.644;23.284;2022-07-18T07:42:42;93802.81;;;28.35;20.90
9229;BME280;4649;42.644;23.284;2022-07-18T07:45:10;93796.53;;;27.97;20.82
9229;BME280;4649;42.644;23.284;2022-07-18T07:47:37;93723.44;;;27.68;23.17
9229;BME280;4649;42.644;23.284;2022-07-18T07:50:06;93800.63;;;28.15;21.69
9229;BME280;4649;42.644;23.284;2022-07-18T07:52:33;93808.53;;;27.90;22.19
9229;BME280;4649;42.644;23.284;2022-07-18T07:55:01;93815.13;;;28.13;22.12
9229;BME280;4649;42.644;23.284;2022-07-18T07:57:32;93757.84;;;27.63;22.23
9229;BME280;4649;42.644;23.284;2022-07-18T08:00:03;93819.22;;;27.84;23.97
9229;BME280;4649;42.644;23.284;2022-07-18T08:02:31;93796.72;;;27.44;21.18
9229;BME280;4649;42.644;23.284;2022-07-18T08:04:57;93811.16;;;27.69;23.43
9229;BME280;4649;42.644;23.284;2022-07-18T08:07:24;93817.00;;;27.82;22.52
9229;BME280;4649;42.644;23.284;2022-07-18T08:09:51;93817.88;;;27.85;22.94
9229;BME280;4649;42.644;23.284;2022-07-18T08:12:18;93795.78;;;27.87;24.33
9229;BME280;4649;42.644;23.284;2022-07-18T08:14:46;93792.84;;;27.85;23.72
9229;BME280;4649;42.644;23.284;2022-07-18T08:17:15;93811.91;;;27.98;24.64
9229;BME280;4649;42.644;23.284;2022-07-18T08:19:41;93810.28;;;28.14;23.93
9229;BME280;4649;42.644;23.284;2022-07-18T08:22:08;93779.22;;;28.08;21.65
9229;BME280;4649;42.644;23.284;2022-07-18T08:24:35;93791.81;;;28.18;20.55
9229;BME280;4649;42.644;23.284;2022-07-18T08:27:02;93809.97;;;28.38;20.82
9229;BME280;4649;42.644;23.284;2022-07-18T08:29:29;93820.53;;;28.21;20.22
9229;BME280;4649;42.644;23.284;2022-07-18T08:31:57;93769.41;;;27.78;21.66
9229;BME280;4649;42.644;23.284;2022-07-18T08:34:24;93820.53;;;28.39;22.06
9229;BME280;4649;42.644;23.284;2022-07-18T08:36:51;93797.53;;;28.30;20.13
9229;BME280;4649;42.644;23.284;2022-07-18T08:39:17;93803.09;;;28.30;20.52
9229;BME280;4649;42.644;23.284;2022-07-18T08:41:46;93794.47;;;28.07;21.14
9229;BME280;4649;42.644;23.284;2022-07-18T08:44:17;93824.34;;;28.34;20.93
9229;BME280;4649;42.644;23.284;2022-07-18T08:46:49;93816.44;;;28.31;20.39
9229;BME280;4649;42.644;23.284;2022-07-18T08:49:17;93818.50;;;28.21;19.67
9229;BME280;4649;42.644;23.284;2022-07-18T08:51:44;93812.06;;;28.19;20.33
9229;BME280;4649;42.644;23.284;2022-07-18T08:54:12;93818.66;;;28.33;20.61
9229;BME280;4649;42.644;23.284;2022-07-18T08:56:39;93801.38;;;28.15;20.33
9229;BME280;4649;42.644;23.284;2022-07-18T08:59:06;93815.13;;;27.75;20.71
9229;BME280;4649;42.644;23.284;2022-07-18T09:01:33;93815.19;;;27.49;20.59
9229;BME280;4649;42.644;23.284;2022-07-18T09:04:00;93773.69;;;27.70;19.72
9229;BME280;4649;42.644;23.284;2022-07-18T09:06:47;93790.19;;;26.68;20.89
9229;BME280;4649;42.644;23.284;2022-07-18T09:09:16;93817.84;;;27.02;22.02
9229;BME280;4649;42.644;23.284;2022-07-18T09:11:51;93765.03;;;27.66;20.82
9229;BME280;4649;42.644;23.284;2022-07-18T09:14:29;93803.84;;;28.02;20.86
9229;BME280;4649;42.644;23.284;2022-07-18T09:17:03;93792.72;;;27.83;21.11
9229;BME280;4649;42.644;23.284;2022-07-18T09:19:30;93810.88;;;28.22;23.05
9229;BME280;4649;42.644;23.284;2022-07-18T09:22:14;93817.31;;;28.33;21.80
9229;BME280;4649;42.644;23.284;2022-07-18T09:24:49;93804.28;;;28.36;24.42
9229;BME280;4649;42.644;23.284;2022-07-18T09:27:28;93805.56;;;28.44;23.64
9229;BME280;4649;42.644;23.284;2022-07-18T09:30:17;93816.56;;;28.52;20.73
9229;BME280;4649;42.644;23.284;2022-07-18T09:32:47;93814.03;;;28.56;22.01
9229;BME280;4649;42.644;23.284;2022-07-18T09:35:17;93814.75;;;28.56;21.53
9229;BME280;4649;42.644;23.284;2022-07-18T09:38:09;93815.28;;;28.25;22.31
9229;BME280;4649;42.644;23.284;2022-07-18T09:40:38;93805.13;;;28.38;21.82
9229;BME280;4649;42.644;23.284;2022-07-18T09:43:06;93812.03;;;28.37;23.09
9229;BME280;4649;42.644;23.284;2022-07-18T09:45:36;93808.69;;;28.20;21.97
9229;BME280;4649;42.644;23.284;2022-07-18T09:48:04;93776.88;;;27.95;22.72
9229;BME280;4649;42.644;23.284;2022-07-18T09:50:34;93799.75;;;27.84;23.22
9229;BME280;4649;42.644;23.284;2022-07-18T09:53:07;93792.84;;;27.75;22.50
9229;BME280;4649;42.644;23.284;2022-07-18T09:55:42;93805.59;;;27.88;21.48
9229;BME280;4649;42.644;23.284;2022-07-18T09:58:10;93807.22;;;27.91;22.56
9229;BME280;4649;42.644;23.284;2022-07-18T10:00:38;93790.94;;;27.87;22.76
9229;BME280;4649;42.644;23.284;2022-07-18T10:03:06;93775.72;;;27.79;22.92
9229;BME280;4649;42.644;23.284;2022-07-18T10:05:35;93805.91;;;27.92;22.60
9229;BME280;4649;42.644;23.284;2022-07-18T10:08:04;93803.41;;;27.77;22.75
9229;BME280;4649;42.644;23.284;2022-07-18T10:10:32;93812.38;;;26.95;23.78
9229;BME280;4649;42.644;23.284;2022-07-18T10:13:02;93803.19;;;24.97;25.97
9229;BME280;4649;42.644;23.284;2022-07-18T10:15:31;93800.28;;;24.95;26.20
9229;BME280;4649;42.644;23.284;2022-07-18T10:17:59;93798.59;;;25.41;26.20
9229;BME280;4649;42.644;23.284;2022-07-18T10:20:32;93729.78;;;25.30;25.80
9229;BME280;4649;42.644;23.284;2022-07-18T10:23:06;93790.78;;;25.81;26.11
9229;BME280;4649;42.644;23.284;2022-07-18T10:25:34;93786.84;;;26.43;25.94
9229;BME280;4649;42.644;23.284;2022-07-18T10:28:06;93790.91;;;26.69;25.85
9229;BME280;4649;42.644;23.284;2022-07-18T10:30:38;93689.13;;;26.28;25.46
9229;BME280;4649;42.644;23.284;2022-07-18T10:33:42;93777.97;;;27.16;25.69
9229;BME280;4649;42.644;23.284;2022-07-18T10:36:12;93791.72;;;26.09;25.34
9229;BME280;4649;42.644;23.284;2022-07-18T10:39:03;93771.66;;;26.44;26.56
9229;BME280;4649;42.644;23.284;2022-07-18T10:41:30;93774.19;;;26.33;27.09
9229;BME280;4649;42.644;23.284;2022-07-18T10:43:59;93748.19;;;25.69;27.50
9229;BME280;4649;42.644;23.284;2022-07-18T10:47:03;93750.44;;;24.71;27.69
9229;BME280;4649;42.644;23.284;2022-07-18T10:50:03;93734.16;;;25.33;27.48
9229;BME280;4649;42.644;23.284;2022-07-18T10:52:55;93771.75;;;25.94;27.15
9229;BME280;4649;42.644;23.284;2022-07-18T10:55:32;93737.75;;;25.93;27.10
9229;BME280;4649;42.644;23.284;2022-07-18T10:58:20;93770.19;;;26.43;26.34
9229;BME280;4649;42.644;23.284;2022-07-18T11:00:52;93746.09;;;26.46;25.74
9229;BME280;4649;42.644;23.284;2022-07-18T11:03:27;93777.06;;;26.43;26.06
9229;BME280;4649;42.644;23.284;2022-07-18T11:05:55;93764.78;;;26.45;25.78
9229;BME280;4649;42.644;23.284;2022-07-18T11:08:23;93762.06;;;26.55;26.25
9229;BME280;4649;42.644;23.284;2022-07-18T11:11:17;93755.28;;;26.75;26.14
9229;BME280;4649;42.644;23.284;2022-07-18T11:13:46;93595.34;;;25.82;26.34
9229;BME280;4649;42.644;23.284;2022-07-18T11:16:22;93748.25;;;26.38;26.92
9229;BME280;4649;42.644;23.284;2022-07-18T11:19:17;93660.50;;;25.30;27.71
9229;BME280;4649;42.644;23.284;2022-07-18T11:21:45;93745.94;;;26.44;26.74
9229;BME280;4649;42.644;23.284;2022-07-18T11:24:14;93727.09;;;26.43;26.62
9229;BME280;4649;42.644;23.284;2022-07-18T11:26:45;93747.09;;;26.77;27.28
9229;BME280;4649;42.644;23.284;2022-07-18T11:29:15;93720.78;;;26.78;27.86
9229;BME280;4649;42.644;23.284;2022-07-18T11:31:45;93746.38;;;26.76;26.54
9229;BME280;4649;42.644;23.284;2022-07-18T11:34:13;93746.13;;;26.91;27.06
9229;BME280;4649;42.644;23.284;2022-07-18T11:36:42;93747.84;;;26.42;25.53
9229;BME280;4649;42.644;23.284;2022-07-18T11:39:09;93750.88;;;25.59;26.40
9229;BME280;4649;42.644;23.284;2022-07-18T11:41:36;93738.69;;;24.87;27.94
9229;BME280;4649;42.644;23.284;2022-07-18T11:44:11;93688.00;;;24.77;26.66
9229;BME280;4649;42.644;23.284;2022-07-18T11:46:44;93571.69;;;24.36;26.97
9229;BME280;4649;42.644;23.284;2022-07-18T11:49:11;93706.13;;;25.12;27.13
9229;BME280;4649;42.644;23.284;2022-07-18T11:51:40;93719.66;;;25.08;27.52
9229;BME280;4649;42.644;23.284;2022-07-18T11:54:07;93704.69;;;25.28;27.70
9229;BME280;4649;42.644;23.284;2022-07-18T11:56:45;93714.59;;;25.82;27.37
9229;BME280;4649;42.644;23.284;2022-07-18T11:59:12;93719.72;;;26.11;27.72
9229;BME280;4649;42.644;23.284;2022-07-18T12:01:39;93704.50;;;26.29;26.39
9229;BME280;4649;42.644;23.284;2022-07-18T12:04:16;93720.22;;;26.17;26.06
9229;BME280;4649;42.644;23.284;2022-07-18T12:06:43;93645.09;;;25.80;26.46
9229;BME280;4649;42.644;23.284;2022-07-18T12:09:10;93714.16;;;26.64;26.13
9229;BME280;4649;42.644;23.284;2022-07-18T12:11:38;93694.84;;;26.30;25.76
9229;BME280;4649;42.644;23.284;2022-07-18T12:14:13;93711.28;;;26.45;26.08
9229;BME280;4649;42.644;23.284;2022-07-18T12:16:42;93647.97;;;25.72;26.54
9229;BME280;4649;42.644;23.284;2022-07-18T12:19:12;93678.09;;;26.11;25.71
9229;BME280;4649;42.644;23.284;2022-07-18T12:21:49;93702.72;;;26.50;25.83
9229;BME280;4649;42.644;23.284;2022-07-18T12:24:28;93705.69;;;26.71;25.85
9229;BME280;4649;42.644;23.284;2022-07-18T12:27:15;93706.03;;;26.85;24.71
9229;BME280;4649;42.644;23.284;2022-07-18T12:29:57;93718.41;;;26.65;25.16
9229;BME280;4649;42.644;23.284;2022-07-18T12:32:28;93664.69;;;26.43;24.95
9229;BME280;4649;42.644;23.284;2022-07-18T12:34:59;93684.38;;;26.12;26.00
9229;BME280;4649;42.644;23.284;2022-07-18T12:37:27;93711.66;;;26.32;26.16
9229;BME280;4649;42.644;23.284;2022-07-18T12:39:59;93625.78;;;26.08;26.51
9229;BME280;4649;42.644;23.284;2022-07-18T12:42:28;93699.66;;;26.56;26.66
9229;BME280;4649;42.644;23.284;2022-07-18T12:44:55;93642.88;;;26.04;26.79
9229;BME280;4649;42.644;23.284;2022-07-18T12:47:22;93695.19;;;26.79;27.98
9229;BME280;4649;42.644;23.284;2022-07-18T12:49:49;93694.69;;;26.28;26.20
9229;BME280;4649;42.644;23.284;2022-07-18T12:52:18;93704.25;;;25.31;26.90
9229;BME280;4649;42.644;23.284;2022-07-18T12:54:46;93701.09;;;25.18;27.69
9229;BME280;4649;42.644;23.284;2022-07-18T12:57:13;93690.84;;;25.71;29.60
9229;BME280;4649;42.644;23.284;2022-07-18T12:59:40;93684.97;;;26.10;30.56
9229;BME280;4649;42.644;23.284;2022-07-18T13:02:07;93664.91;;;26.29;30.49
9229;BME280;4649;42.644;23.284;2022-07-18T13:04:33;93682.16;;;26.63;29.99
9229;BME280;4649;42.644;23.284;2022-07-18T13:07:00;93678.69;;;26.81;30.36
9229;BME280;4649;42.644;23.284;2022-07-18T13:09:28;93675.47;;;26.94;30.05
9229;BME280;4649;42.644;23.284;2022-07-18T13:11:55;93679.69;;;26.86;27.43
9229;BME280;4649;42.644;23.284;2022-07-18T13:14:22;93679.88;;;26.88;29.02
9229;BME280;4649;42.644;23.284;2022-07-18T13:16:49;93667.56;;;26.72;28.23
9229;BME280;4649;42.644;23.284;2022-07-18T13:19:18;93674.25;;;26.69;28.54
9229;BME280;4649;42.644;23.284;2022-07-18T13:21:46;93679.69;;;26.67;29.02